Portada
METAR-TAF:

METAR-TAF

Aeropuertos :

Aeropuerto de Sevilla

Sevilla, España

latitud: 37-25N, longitud: 005-54W, altitud: 34 m

Observación

El informe se hizo hace 35 minutos, a las 00:30 UTC
Viento 3 kt del sur, variando entre sureste y suroeste
Temperatura 14°C
Humedad 88%
Presión 1021 hPa
Visibilidad 10 km o más
sin nubes por debajo de 1500 m y sin presencia de cumulonimbus.

METAR: LEZL 020030Z AUTO 18003KT 140V220 CAVOK 14/12 Q1021

Hora: 02:05 (01:05 UTC)

Pronóstico

El informe se hizo hace 5 horas y 5 minutos, a las 20:00 UTC
Pronóstico válido del 01 a las 21 UTC al 02 a las 21 UTC
Viento 6 kt del noreste
Visibilidad 10 km o más
sin nubes por debajo de 1500 m y sin presencia de cumulonimbus.

TAF: LEZL 012000Z 0121/0221 05006KT CAVOK TX22/0216Z TN09/0207Z

Observaciones y pronósticos meteorológicos de más de 4000 aeropuertos (mensajes METAR y TAF).

Los puntos amarillos y rojos representan las estaciones disponibles.

Ponga el ratón en el punto deseado para ver el nombre de la estación.

Haga clic para ver las observaciones y los pronósticos meteorológicos.

Para cambiar el mapa : haga clic en los botones verdes con una cruz de color negro para hacer un zoom, en el botón verde con un guión para alejar o en las flechas verdes para mapas adyacentes.


METAR-TAF: